Duane, New York
Current Conditions -  °F | °C
As of 7:51 PM on Tuesday 27 Jan 2015 (Local Time) from KSLK Reporting Station
Overcast Overcast  
Wind Chill:   Ceiling: 3600
Heat Index:   Visibility: 10mi
Dew Point: -9°   Wind: 3mph
Humidity: 50%   Direction: NA
Pressure: 29.86"   Gusts: NA
Location:  44.7347°N, 74.2672°W
Report Text: KSLK 280051Z AUTO VRB03KT 10SM OVC036 M14/M23 A2986 RMK AO2 SLP151 T11441228
Loading
Personal Weather Stations






























Interactive Weather Map New forecast layout! Learn more

10-Day Weather Forecast

Advertisements
Track Severe Weather on mobile